Time;durP1;ratioP1;P1;durP2;ratioP2;P2;SDS_P1;SDS_P2;PMS_P1;PMS_P2;Temp;Humidity;BMP_temperature;BMP_pressure;BME280_temperature;BME280_humidity;BME280_pressure;Samples;Min_cycle;Max_cycle;Signal;HPM_P1;HPM_P2
2023/08/24 00:00:37;;;;;;;7.72;3.80;;;;;;;15.87;100.00;101957.72;5024422;28;20067;-79
2023/08/24 00:03:05;;;;;;;4.68;3.90;;;;;;;15.85;100.00;101951.53;5035481;28;20059;-79
2023/08/24 00:05:34;;;;;;;7.53;3.65;;;;;;;15.84;100.00;101952.44;5066079;28;20075;-79
2023/08/24 00:08:01;;;;;;;5.75;3.38;;;;;;;15.83;100.00;101955.97;5069266;28;20041;-79
2023/08/24 00:10:29;;;;;;;4.60;2.90;;;;;;;15.80;100.00;101950.66;5071012;28;20054;-79
2023/08/24 00:12:57;;;;;;;3.17;2.88;;;;;;;15.79;100.00;101946.22;5071022;28;20055;-78
2023/08/24 00:15:24;;;;;;;5.97;3.53;;;;;;;15.77;100.00;101948.00;5055490;28;20060;-78
2023/08/24 00:17:52;;;;;;;5.30;3.40;;;;;;;15.74;100.00;101943.56;5026762;28;20374;-78
2023/08/24 00:20:20;;;;;;;3.95;3.40;;;;;;;15.73;100.00;101935.59;5067177;28;20052;-79
2023/08/24 00:22:47;;;;;;;3.13;2.75;;;;;;;15.70;100.00;101936.44;5052077;28;20048;-78
2023/08/24 00:25:15;;;;;;;6.47;3.50;;;;;;;15.70;100.00;101938.22;5041669;28;20059;-78
2023/08/24 00:27:43;;;;;;;4.65;3.30;;;;;;;15.67;100.00;101940.88;5090238;28;20044;-79
2023/08/24 00:30:12;;;;;;;3.33;3.03;;;;;;;15.65;100.00;101940.00;5055313;28;20071;-78
2023/08/24 00:32:40;;;;;;;6.10;3.25;;;;;;;15.62;100.00;101932.03;5056420;28;20055;-79
2023/08/24 00:35:10;;;;;;;6.38;3.67;;;;;;;15.60;100.00;101930.25;5049863;28;20501;-79
2023/08/24 00:37:38;;;;;;;5.57;3.70;;;;;;;15.58;100.00;101920.53;5068453;28;20055;-80
2023/08/24 00:40:12;;;;;;;4.03;3.63;;;;;;;15.55;100.00;101926.72;5081269;28;20052;-79
2023/08/24 00:42:42;;;;;;;6.03;3.95;;;;;;;15.55;100.00;101923.19;5069787;28;20044;-78
2023/08/24 00:45:13;;;;;;;8.10;4.15;;;;;;;15.51;100.00;101921.41;5071723;28;20052;-79
2023/08/24 00:47:44;;;;;;;7.18;4.38;;;;;;;15.51;100.00;101921.41;5038708;28;20040;-79
2023/08/24 00:50:12;;;;;;;;;;;;;;;15.50;100.00;101912.56;5031553;28;20523;-78
2023/08/24 00:52:41;;;;;;;7.63;4.20;;;;;;;15.50;100.00;101920.53;5069408;28;20417;-78
2023/08/24 00:55:09;;;;;;;5.35;3.72;;;;;;;15.51;100.00;101916.09;5073131;28;20420;-79
2023/08/24 00:57:40;;;;;;;5.63;4.00;;;;;;;15.51;100.00;101910.78;5069032;28;20048;-79
2023/08/24 01:00:10;;;;;;;4.13;3.70;;;;;;;15.49;100.00;101910.78;5082040;28;20056;-79
2023/08/24 01:02:38;;;;;;;6.68;3.95;;;;;;;15.51;100.00;101914.31;5090840;28;20032;-78
2023/08/24 01:05:06;;;;;;;6.15;4.22;;;;;;;15.53;100.00;101915.19;5035837;28;20044;-78
2023/08/24 01:07:36;;;;;;;5.28;4.20;;;;;;;15.55;100.00;101918.75;5075761;28;20063;-79
2023/08/24 01:10:07;;;;;;;6.07;5.47;;;;;;;15.58;100.00;101923.19;5088088;28;20063;-79
2023/08/24 01:12:56;;;;;;;6.05;5.30;;;;;;;15.60;100.00;101918.75;5087317;28;20086;-79
2023/08/24 01:16:08;;;;;;;9.23;4.93;;;;;;;15.61;100.00;101915.19;5077241;28;20044;-78
2023/08/24 01:18:40;;;;;;;6.88;5.15;;;;;;;15.62;100.00;101910.78;5050749;28;20045;-78
2023/08/24 01:21:08;;;;;;;8.57;5.78;;;;;;;15.63;100.00;101923.16;5042993;28;20056;-78
2023/08/24 01:24:03;;;;;;;5.78;4.97;;;;;;;15.64;100.00;101917.00;5051348;28;20037;-79
2023/08/24 01:26:31;;;;;;;10.23;5.25;;;;;;;15.65;100.00;101908.09;5064214;28;20409;-79
2023/08/24 01:28:59;;;;;;;7.95;5.30;;;;;;;15.65;100.00;101909.03;5061392;28;20052;-78
2023/08/24 01:31:27;;;;;;;6.90;6.10;;;;;;;15.67;100.00;101904.59;5069506;28;20639;-80
2023/08/24 01:33:55;;;;;;;6.50;4.78;;;;;;;15.67;100.00;101899.28;5072808;28;20048;-79
2023/08/24 01:36:24;;;;;;;7.43;5.43;;;;;;;15.68;100.00;101906.34;5034284;28;20436;-79
2023/08/24 01:39:27;;;;;;;6.10;5.50;;;;;;;15.70;100.00;101903.69;5089133;28;20051;-78
2023/08/24 01:42:00;;;;;;;6.47;5.28;;;;;;;15.69;100.00;101899.25;5083425;28;20059;-78
2023/08/24 01:44:32;;;;;;;6.40;5.60;;;;;;;15.69;100.00;101891.28;5086418;28;20044;-79
2023/08/24 01:47:03;;;;;;;7.00;4.90;;;;;;;15.69;100.00;101889.53;5079123;28;20052;-79
2023/08/24 01:49:33;;;;;;;8.15;5.53;;;;;;;15.70;100.00;101890.41;5071266;28;20055;-79
2023/08/24 01:52:02;;;;;;;;;;;;;;;15.71;100.00;101892.19;5052816;28;20052;-80
2023/08/24 01:54:30;;;;;;;5.72;5.10;;;;;;;15.70;100.00;101891.28;5088115;28;19920;-79
2023/08/24 01:56:57;;;;;;;7.38;5.90;;;;;;;15.71;100.00;101884.22;5057096;28;20043;-79
2023/08/24 01:59:25;;;;;;;5.32;4.70;;;;;;;15.70;100.00;101878.00;5087102;28;20048;-78
2023/08/24 02:01:52;;;;;;;5.45;4.95;;;;;;;15.70;100.00;101879.78;5055194;28;20052;-79
2023/08/24 02:04:19;;;;;;;7.32;5.30;;;;;;;15.69;100.00;101876.25;5075394;28;20529;-80
2023/08/24 02:06:48;;;;;;;6.72;4.63;;;;;;;15.67;100.00;101872.69;5054686;28;20063;-78
2023/08/24 02:09:15;;;;;;;8.90;5.85;;;;;;;15.69;100.00;101870.94;5026351;28;20055;-79
2023/08/24 02:11:42;;;;;;;7.47;4.82;;;;;;;15.69;100.00;101864.69;5072459;28;20052;-78
2023/08/24 02:14:10;;;;;;;6.00;5.15;;;;;;;15.68;100.00;101863.81;5071421;28;20055;-79
2023/08/24 02:16:39;;;;;;;8.73;4.78;;;;;;;15.68;100.00;101861.16;5090764;28;20043;-78
2023/08/24 02:19:06;;;;;;;8.70;4.90;;;;;;;15.69;100.00;101859.38;5068789;28;20051;-80
2023/08/24 02:21:37;;;;;;;6.25;5.20;;;;;;;15.69;100.00;101859.38;5054288;28;20055;-78
2023/08/24 02:24:05;;;;;;;6.05;5.03;;;;;;;15.69;100.00;101860.28;5049016;28;20060;-80
2023/08/24 02:26:33;;;;;;;7.57;4.78;;;;;;;15.70;100.00;101863.81;5089009;28;20038;-78
2023/08/24 02:29:01;;;;;;;7.97;4.40;;;;;;;15.70;100.00;101866.47;5056564;28;20055;-78
2023/08/24 02:31:28;;;;;;;7.40;4.68;;;;;;;15.69;100.00;101865.59;5066101;28;20405;-80
2023/08/24 02:33:56;;;;;;;7.80;4.65;;;;;;;15.68;100.00;101863.81;5071967;28;20040;-79
2023/08/24 02:36:23;;;;;;;5.55;4.15;;;;;;;15.69;100.00;101862.03;5050915;28;20058;-79
2023/08/24 02:38:51;;;;;;;10.43;4.65;;;;;;;15.70;100.00;101869.16;5020889;28;20040;-78
2023/08/24 02:41:18;;;;;;;7.45;4.72;;;;;;;15.70;100.00;101870.00;5063199;28;20040;-81
2023/08/24 02:43:46;;;;;;;6.03;4.03;;;;;;;15.71;100.00;101868.28;5063495;28;20052;-80
2023/08/24 02:46:13;;;;;;;5.40;3.97;;;;;;;15.71;100.00;101877.13;5070834;28;20044;-81
2023/08/24 02:48:41;;;;;;;7.35;4.35;;;;;;;15.72;100.00;101868.25;5070795;28;20036;-79
2023/08/24 02:51:09;;;;;;;5.13;4.32;;;;;;;15.74;100.00;101870.94;5052108;28;20052;-79
2023/08/24 02:53:37;;;;;;;7.85;4.38;;;;;;;15.76;100.00;101870.06;5027507;28;20075;-79
2023/08/24 02:56:05;;;;;;;9.63;4.80;;;;;;;15.78;100.00;101865.63;5071124;28;20056;-78
2023/08/24 02:58:35;;;;;;;6.15;4.63;;;;;;;15.80;100.00;101857.63;5069712;28;20048;-78
2023/08/24 03:01:07;;;;;;;8.63;5.15;;;;;;;15.82;100.00;101850.53;5054774;28;20413;-78
2023/08/24 03:03:36;;;;;;;6.45;4.10;;;;;;;15.85;100.00;101849.66;5061247;28;20070;-79
2023/08/24 03:06:07;;;;;;;5.93;4.38;;;;;;;15.85;100.00;101847.88;5066506;28;20425;-80
2023/08/24 03:08:36;;;;;;;6.00;4.38;;;;;;;15.86;100.00;101836.38;5032521;28;20099;-79
2023/08/24 03:11:06;;;;;;;7.88;4.43;;;;;;;15.88;100.00;101844.31;5068091;28;20048;-78
2023/08/24 03:13:37;;;;;;;5.13;4.63;;;;;;;15.89;100.00;101841.66;5048465;28;20051;-79
2023/08/24 03:16:09;;;;;;;6.97;5.05;;;;;;;15.89;100.00;101835.47;5084899;28;20048;-79
2023/08/24 03:18:37;;;;;;;6.63;4.80;;;;;;;15.90;100.00;101823.97;5056000;28;20767;-79
2023/08/24 03:21:04;;;;;;;7.30;3.92;;;;;;;15.91;100.00;101826.59;5037073;28;20432;-78
2023/08/24 03:23:33;;;;;;;8.10;4.30;;;;;;;15.90;100.00;101819.53;5053203;28;20456;-79
2023/08/24 03:26:03;;;;;;;5.50;3.75;;;;;;;15.90;100.00;101816.88;5042128;28;20059;-79
2023/08/24 03:28:30;;;;;;;5.85;4.07;;;;;;;15.90;100.00;101816.00;5068052;28;20622;-79
2023/08/24 03:31:00;;;;;;;6.43;3.90;;;;;;;15.90;100.00;101831.94;5070289;28;20059;-79
2023/08/24 03:33:28;;;;;;;8.43;3.83;;;;;;;15.88;100.00;101831.94;5084547;28;20036;-79
2023/08/24 03:35:56;;;;;;;5.00;4.15;;;;;;;15.88;100.00;101834.59;5069400;28;20059;-78
2023/08/24 03:38:23;;;;;;;5.65;3.78;;;;;;;15.89;100.00;101824.84;5049066;28;20040;-79
2023/08/24 03:40:52;;;;;;;6.75;4.35;;;;;;;15.86;100.00;101816.84;5029018;28;20539;-79
2023/08/24 03:43:19;;;;;;;5.63;5.05;;;;;;;15.85;100.00;101818.63;5084773;28;20055;-79
2023/08/24 03:45:46;;;;;;;5.72;5.10;;;;;;;15.83;100.00;101820.41;5055089;28;20045;-80
2023/08/24 03:48:14;;;;;;;11.48;6.20;;;;;;;15.81;100.00;101831.97;5087097;28;20409;-80
2023/08/24 03:50:42;;;;;;;10.50;5.68;;;;;;;15.78;100.00;101833.75;5053119;28;20052;-78
2023/08/24 03:53:10;;;;;;;10.02;5.88;;;;;;;15.76;100.00;101824.88;5087124;28;20048;-79
2023/08/24 03:55:37;;;;;;;6.18;5.40;;;;;;;15.76;100.00;101819.56;5057945;28;20043;-78
2023/08/24 03:58:05;;;;;;;7.57;5.65;;;;;;;15.75;100.00;101827.53;5034525;28;20056;-78
2023/08/24 04:00:32;;;;;;;6.05;5.30;;;;;;;15.76;100.00;101835.53;5073143;28;20652;-79
2023/08/24 04:03:02;;;;;;;5.97;5.20;;;;;;;15.76;100.00;101840.84;5066304;28;20052;-80
2023/08/24 04:05:31;;;;;;;9.48;6.07;;;;;;;15.77;100.00;101831.09;5076171;28;20055;-79
2023/08/24 04:08:00;;;;;;;8.52;5.95;;;;;;;15.79;100.00;101837.28;5072519;28;20043;-79
2023/08/24 04:10:29;;;;;;;9.55;6.22;;;;;;;15.81;100.00;101838.16;5065834;28;20045;-79
2023/08/24 04:12:58;;;;;;;9.93;7.50;;;;;;;15.82;100.00;101847.88;5022040;28;20048;-80
2023/08/24 04:15:25;;;;;;;11.93;7.03;;;;;;;15.84;100.00;101832.84;5037798;28;20048;-78
2023/08/24 04:17:54;;;;;;;12.32;7.03;;;;;;;15.87;100.00;101831.94;5041565;28;20048;-80
2023/08/24 04:20:21;;;;;;;12.15;7.07;;;;;;;15.89;100.00;101828.38;5073790;28;20383;-78
2023/08/24 04:22:49;;;;;;;10.73;6.95;;;;;;;15.90;100.00;101834.59;5060990;28;20056;-78
2023/08/24 04:25:16;;;;;;;16.35;7.45;;;;;;;15.91;100.00;101839.00;5068958;28;20058;-78
2023/08/24 04:27:43;;;;;;;8.68;6.78;;;;;;;15.89;100.00;101841.66;5045300;28;20044;-78
2023/08/24 04:30:12;;;;;;;12.15;6.85;;;;;;;15.90;100.00;101839.91;5089092;28;20047;-80
2023/08/24 04:32:39;;;;;;;9.38;6.32;;;;;;;15.89;100.00;101846.97;5083476;28;20056;-78
2023/08/24 04:35:08;;;;;;;11.18;6.90;;;;;;;15.88;100.00;101837.25;5051101;28;20057;-79
2023/08/24 04:37:35;;;;;;;14.82;6.65;;;;;;;15.87;100.00;101837.25;5066196;28;20048;-79
2023/08/24 04:40:04;;;;;;;8.00;6.25;;;;;;;15.85;100.00;101826.63;5065496;28;20056;-79
2023/08/24 04:42:31;;;;;;;12.05;6.88;;;;;;;15.85;100.00;101831.06;5070634;28;20083;-80
2023/08/24 04:44:59;;;;;;;9.32;7.32;;;;;;;15.84;100.00;101834.59;5017437;28;20524;-80
2023/08/24 04:47:27;;;;;;;13.05;7.95;;;;;;;15.83;100.00;101828.41;5057850;28;20040;-79
2023/08/24 04:49:55;;;;;;;10.90;7.88;;;;;;;15.83;100.00;101825.75;5044275;28;20421;-79
2023/08/24 04:52:23;;;;;;;14.45;7.50;;;;;;;15.83;100.00;101828.41;5068281;28;20047;-79
2023/08/24 04:54:51;;;;;;;9.60;7.47;;;;;;;15.84;100.00;101826.63;5077363;28;20043;-79
2023/08/24 04:57:20;;;;;;;11.05;7.18;;;;;;;15.84;100.00;101815.97;5051640;28;20040;-79
2023/08/24 04:59:51;;;;;;;14.10;7.38;;;;;;;15.83;100.00;101800.94;5017150;28;20048;-79
2023/08/24 05:02:19;;;;;;;12.68;7.85;;;;;;;15.80;100.00;101807.13;5068844;28;20416;-78
2023/08/24 05:04:48;;;;;;;9.88;7.38;;;;;;;15.80;100.00;101804.47;5064937;28;20059;-78
2023/08/24 05:07:17;;;;;;;7.80;6.63;;;;;;;15.81;100.00;101800.94;5072471;28;20040;-78
2023/08/24 05:09:45;;;;;;;10.50;7.43;;;;;;;15.83;100.00;101800.94;5090747;28;20628;-79
2023/08/24 05:12:13;;;;;;;11.95;7.65;;;;;;;15.85;100.00;101801.81;5062138;28;20052;-78
2023/08/24 05:14:40;;;;;;;9.00;7.65;;;;;;;15.86;100.00;101787.63;5062322;28;20060;-79
2023/08/24 05:17:08;;;;;;;9.27;7.97;;;;;;;15.88;100.00;101786.75;5047245;28;20048;-78
2023/08/24 05:19:36;;;;;;;12.07;7.15;;;;;;;15.89;100.00;101787.63;5089003;28;20055;-79
2023/08/24 05:22:03;;;;;;;11.70;8.10;;;;;;;15.92;100.00;101796.47;5058239;28;20548;-79
2023/08/24 05:24:30;;;;;;;9.23;7.78;;;;;;;15.93;100.00;101808.84;5081044;28;20059;-79
2023/08/24 05:26:58;;;;;;;11.63;7.60;;;;;;;15.96;100.00;101794.69;5063480;28;20039;-79
2023/08/24 05:29:26;;;;;;;9.70;7.70;;;;;;;15.98;100.00;101780.50;5040102;28;20075;-79
2023/08/24 05:31:54;;;;;;;9.18;7.78;;;;;;;16.01;100.00;101786.69;5030866;28;20500;-80
2023/08/24 05:34:22;;;;;;;13.68;8.60;;;;;;;16.06;100.00;101790.22;5043013;28;20075;-80
2023/08/24 05:36:50;;;;;;;12.27;8.80;;;;;;;16.09;100.00;101790.22;5057561;28;20059;-79
2023/08/24 05:39:18;;;;;;;11.13;8.18;;;;;;;16.14;100.00;101793.72;5068072;28;20044;-79
2023/08/24 05:41:46;;;;;;;14.55;8.18;;;;;;;16.18;100.00;101790.13;5098853;28;20736;-79
2023/08/24 05:44:14;;;;;;;13.18;8.52;;;;;;;16.23;100.00;101791.00;5054846;28;20045;-79
2023/08/24 05:46:43;;;;;;;13.05;8.18;;;;;;;16.29;100.00;101795.41;5016680;28;20040;-79
2023/08/24 05:49:11;;;;;;;12.73;8.32;;;;;;;16.36;100.00;101791.84;5062819;28;20043;-79
2023/08/24 05:51:38;;;;;;;12.02;7.80;;;;;;;16.44;100.00;101794.44;5082886;28;20444;-79
2023/08/24 05:54:07;;;;;;;12.38;8.27;;;;;;;16.53;100.00;101789.06;5052378;28;20059;-79
2023/08/24 05:56:34;;;;;;;11.80;7.95;;;;;;;16.66;100.00;101788.09;5069067;28;20051;-79
2023/08/24 05:59:02;;;;;;;9.48;7.80;;;;;;;16.78;100.00;101779.13;5065314;28;20060;-79
2023/08/24 06:01:32;;;;;;;9.20;7.10;;;;;;;16.87;100.00;101781.75;5087150;28;20056;-80
2023/08/24 06:04:00;;;;;;;11.45;6.72;;;;;;;16.96;100.00;101788.78;5033993;28;20055;-80
2023/08/24 06:06:28;;;;;;;12.18;6.78;;;;;;;17.03;100.00;101786.94;5051984;28;20040;-78
2023/08/24 06:08:55;;;;;;;12.50;6.45;;;;;;;17.09;100.00;101787.78;5055761;28;20052;-78
2023/08/24 06:11:22;;;;;;;12.65;6.35;;;;;;;17.11;100.00;101778.00;5051221;28;20775;-78
2023/08/24 06:13:53;;;;;;;10.90;6.30;;;;;;;17.14;100.00;101785.06;5054923;28;20049;-79
2023/08/24 06:16:20;;;;;;;9.07;6.18;;;;;;;17.20;100.00;101787.69;5067352;28;20055;-79
2023/08/24 06:18:49;;;;;;;11.23;5.75;;;;;;;17.28;100.00;101793.81;5017315;28;20058;-79
2023/08/24 06:21:17;;;;;;;9.57;6.32;;;;;;;17.41;100.00;101789.25;5052037;28;20052;-79
2023/08/24 06:23:44;;;;;;;8.73;6.10;;;;;;;17.51;100.00;101769.59;5071075;28;20528;-78
2023/08/24 06:26:12;;;;;;;10.23;6.18;;;;;;;17.59;100.00;101779.31;5050918;28;20056;-80
2023/08/24 06:28:40;;;;;;;9.85;6.28;;;;;;;17.67;100.00;101793.41;5077587;28;20056;-78
2023/08/24 06:31:08;;;;;;;9.73;6.13;;;;;;;17.77;100.00;101788.84;5052442;28;20049;-80
2023/08/24 06:33:36;;;;;;;11.00;5.38;;;;;;;17.86;100.00;101781.69;5047786;28;20052;-78
2023/08/24 06:36:08;;;;;;;7.93;5.75;;;;;;;18.00;100.00;101783.31;5087281;28;20489;-79
2023/08/24 06:38:36;;;;;;;8.20;6.13;;;;;;;18.10;100.00;101784.94;5060600;28;20055;-79
2023/08/24 06:41:03;;;;;;;9.15;5.57;;;;;;;18.22;100.00;101773.22;5070145;28;20417;-79
2023/08/24 06:43:31;;;;;;;13.25;5.75;;;;;;;18.33;100.00;101781.06;5062319;28;20450;-79
2023/08/24 06:45:58;;;;;;;6.18;5.13;;;;;;;18.38;100.00;101768.56;5062863;28;20053;-79
2023/08/24 06:48:28;;;;;;;8.25;5.13;;;;;;;18.42;100.00;101763.13;5033025;28;20060;-80
2023/08/24 06:50:56;;;;;;;6.50;4.88;;;;;;;18.50;100.00;101755.88;5074600;28;20051;-80
2023/08/24 06:53:23;;;;;;;7.40;4.90;;;;;;;18.67;100.00;101754.75;5064880;28;20055;-79
2023/08/24 06:55:55;;;;;;;7.60;4.05;;;;;;;18.89;100.00;101753.53;5071943;28;20052;-79
2023/08/24 06:58:23;;;;;;;6.45;3.83;;;;;;;19.08;100.00;101746.06;5084713;28;20051;-79
2023/08/24 07:00:54;;;;;;;7.82;4.82;;;;;;;19.30;100.00;101751.03;5077195;28;20048;-80
2023/08/24 07:03:21;;;;;;;9.90;4.15;;;;;;;19.53;100.00;101745.22;5085703;28;20044;-79
2023/08/24 07:05:51;;;;;;;7.35;4.13;;;;;;;19.81;100.00;101739.34;5061601;28;20048;-80
2023/08/24 07:08:18;;;;;;;5.32;3.92;;;;;;;20.03;100.00;101742.44;5050398;28;20052;-79
2023/08/24 07:10:46;;;;;;;5.47;3.72;;;;;;;20.12;100.00;101736.00;5042806;28;20044;-79
2023/08/24 07:13:13;;;;;;;5.95;4.03;;;;;;;20.16;100.00;101724.31;5078536;28;20043;-79
2023/08/24 07:15:42;;;;;;;9.75;4.40;;;;;;;20.16;100.00;101711.81;5029544;28;20048;-79
2023/08/24 07:18:11;;;;;;;5.88;3.70;;;;;;;20.14;100.00;101702.06;5041882;28;20394;-79
2023/08/24 07:20:38;;;;;;;5.07;3.85;;;;;;;20.08;100.00;101705.78;5023426;28;20044;-79
2023/08/24 07:23:05;;;;;;;5.85;3.67;;;;;;;20.07;100.00;101709.34;5056756;28;20094;-79
2023/08/24 07:25:33;;;;;;;5.85;3.95;;;;;;;20.03;100.00;101703.19;5047700;28;20070;-79
2023/08/24 07:28:02;;;;;;;13.27;8.40;;;;;;;20.00;100.00;101705.03;5086618;28;20408;-79
2023/08/24 07:30:31;;;;;;;6.40;4.25;;;;;;;19.94;100.00;101698.03;5059353;28;20040;-79
2023/08/24 07:33:03;;;;;;;5.13;3.92;;;;;;;19.84;100.00;101700.03;5073239;28;20056;-79
2023/08/24 07:35:31;;;;;;;5.50;4.30;;;;;;;19.85;100.00;101693.78;5042645;28;21083;-79
2023/08/24 07:38:00;;;;;;;6.88;4.15;;;;;;;19.95;100.00;101690.91;5066486;28;20055;-78
2023/08/24 07:40:27;;;;;;;5.80;3.95;;;;;;;20.04;100.00;101685.34;5083221;28;20047;-79
2023/08/24 07:42:56;;;;;;;9.15;4.85;;;;;;;20.05;100.00;101685.28;5081836;28;20048;-79
2023/08/24 07:45:24;;;;;;;6.72;4.88;;;;;;;20.04;100.00;101680.88;5031935;28;20051;-80
2023/08/24 07:47:51;;;;;;;7.55;5.13;;;;;;;20.05;100.00;101679.06;5055710;28;20048;-79
2023/08/24 07:50:20;;;;;;;8.75;5.20;;;;;;;20.06;100.00;101679.03;5062432;28;20048;-79
2023/08/24 07:52:48;;;;;;;13.65;5.60;;;;;;;20.06;100.00;101671.03;5029488;28;20485;-78
2023/08/24 07:55:17;;;;;;;5.25;4.75;;;;;;;20.17;100.00;101675.22;5050660;28;20052;-81
2023/08/24 07:57:44;;;;;;;6.70;5.93;;;;;;;20.29;100.00;101666.03;5064538;28;20063;-79
2023/08/24 08:00:14;;;;;;;7.35;5.55;;;;;;;20.38;100.00;101666.69;5032072;28;20052;-80
2023/08/24 08:02:41;;;;;;;7.13;5.75;;;;;;;20.44;100.00;101660.31;5056624;28;20048;-79
2023/08/24 08:05:12;;;;;;;7.45;5.82;;;;;;;20.49;100.00;101661.09;5073871;28;20477;-79
2023/08/24 08:07:39;;;;;;;8.80;5.60;;;;;;;20.49;100.00;101661.09;5041985;28;20044;-80
2023/08/24 08:10:07;;;;;;;6.43;5.25;;;;;;;20.51;100.00;101658.34;5073846;28;20074;-79
2023/08/24 08:12:35;;;;;;;9.60;5.60;;;;;;;20.66;100.00;101667.81;5086745;28;20032;-79
2023/08/24 08:15:04;;;;;;;8.45;5.43;;;;;;;20.74;100.00;101660.47;5065382;28;20060;-81
2023/08/24 08:17:33;;;;;;;13.18;6.63;;;;;;;20.81;100.00;101662.97;5064834;28;20052;-80
2023/08/24 08:20:02;;;;;;;8.02;4.85;;;;;;;20.80;100.00;101663.84;5060438;28;20090;-80
2023/08/24 08:22:29;;;;;;;5.68;4.78;;;;;;;20.83;100.00;101661.13;5021151;28;20057;-79
2023/08/24 08:24:57;;;;;;;6.25;4.90;;;;;;;20.90;100.00;101661.81;5061759;28;20063;-80
2023/08/24 08:27:26;;;;;;;7.50;4.50;;;;;;;20.95;100.00;101681.31;5049077;28;20062;-80
2023/08/24 08:29:54;;;;;;;8.43;4.90;;;;;;;21.01;100.00;101664.22;5081683;28;20055;-79
2023/08/24 08:32:21;;;;;;;8.43;4.53;;;;;;;21.11;100.00;101667.50;5057603;28;20044;-80
2023/08/24 08:34:48;;;;;;;7.63;4.47;;;;;;;21.25;100.00;101677.84;5045198;28;20380;-80
2023/08/24 08:37:22;;;;;;;4.75;3.75;;;;;;;21.36;100.00;101671.25;5051235;28;20294;-80
2023/08/24 08:39:49;;;;;;;4.35;3.85;;;;;;;21.44;100.00;101660.34;5047151;28;20052;-80
2023/08/24 08:42:17;;;;;;;8.38;4.22;;;;;;;21.63;100.00;101658.00;5084161;28;20540;-80
2023/08/24 08:44:46;;;;;;;4.38;3.90;;;;;;;21.74;100.00;101644.28;5100718;28;20036;-80
2023/08/24 08:47:14;;;;;;;7.15;4.15;;;;;;;21.77;100.00;101633.44;5050647;28;20047;-80
2023/08/24 08:49:43;;;;;;;7.18;4.82;;;;;;;21.88;100.00;101625.06;5043845;28;20049;-79
2023/08/24 08:52:11;;;;;;;9.68;4.75;;;;;;;22.01;100.00;101623.72;5081556;28;20056;-80
2023/08/24 08:54:40;;;;;;;5.95;4.13;;;;;;;22.16;100.00;101631.28;5021665;28;20056;-80
2023/08/24 08:57:07;;;;;;;4.78;3.90;;;;;;;22.28;100.00;101627.34;5071897;28;20067;-80
2023/08/24 08:59:35;;;;;;;6.63;4.20;;;;;;;22.43;100.00;101643.88;5059310;28;20055;-79
2023/08/24 09:02:03;;;;;;;7.53;4.30;;;;;;;22.56;100.00;101640.69;5042062;28;20067;-78
2023/08/24 09:04:36;;;;;;;5.30;3.78;;;;;;;22.66;100.00;101626.97;5062354;28;20063;-79
2023/08/24 09:07:10;;;;;;;4.47;3.90;;;;;;;22.73;100.00;101631.19;5086506;28;20056;-79
2023/08/24 09:09:38;;;;;;;6.47;4.20;;;;;;;22.75;100.00;101614.06;5062792;27;20063;-79
2023/08/24 09:12:06;;;;;;;5.72;3.90;;;;;;;22.76;100.00;101605.09;5059510;28;20051;-79
2023/08/24 09:14:35;;;;;;;7.70;4.40;;;;;;;22.86;100.00;101599.41;5055286;28;20130;-79
2023/08/24 09:17:03;;;;;;;7.57;4.35;;;;;;;22.93;100.00;101600.91;5067331;28;20040;-80
2023/08/24 09:19:35;;;;;;;9.25;4.63;;;;;;;23.05;100.00;101591.56;5072184;28;20040;-79
2023/08/24 09:22:03;;;;;;;7.00;3.78;;;;;;;23.15;100.00;101590.28;5048899;28;20045;-81
2023/08/24 09:24:36;;;;;;;4.47;3.80;;;;;;;23.28;100.00;101596.94;5028663;28;20036;-82
2023/08/24 09:27:17;;;;;;;9.13;4.45;;;;;;;23.42;100.00;101592.84;5050557;28;20524;-80
2023/08/24 09:29:52;;;;;;;21.30;4.40;;;;;;;23.52;100.00;101592.44;5076412;28;20040;-78
2023/08/24 09:32:27;;;;;;;9.45;4.95;;;;;;;23.47;100.00;101597.09;5078269;28;20043;-80
2023/08/24 09:34:55;;;;;;;6.50;4.80;;;;;;;23.42;100.00;101593.75;5058286;28;20083;-78
2023/08/24 09:37:22;;;;;;;9.88;4.75;;;;;;;23.32;100.00;101593.19;5072935;28;20044;-81
2023/08/24 09:39:50;;;;;;;12.60;4.65;;;;;;;23.31;100.00;101595.97;5011780;28;20055;-80
2023/08/24 09:42:25;;;;;;;7.15;4.75;;;;;;;23.38;100.00;101592.06;5048320;28;20048;-79
2023/08/24 09:45:04;;;;;;;8.20;4.57;;;;;;;23.46;100.00;101597.16;5054216;28;20052;-79
2023/08/24 09:47:33;;;;;;;5.45;4.60;;;;;;;23.51;100.00;101587.97;5057994;28;20033;-81
2023/08/24 09:50:01;;;;;;;6.70;4.40;;;;;;;23.56;100.00;101574.34;5067054;28;20049;-81
2023/08/24 09:52:32;;;;;;;9.68;5.10;;;;;;;23.64;100.00;101574.91;5042947;28;20044;-80
2023/08/24 09:55:07;;;;;;;6.88;5.15;;;;;;;23.57;100.00;101568.03;5059407;28;20059;-79
2023/08/24 09:57:38;;;;;;;9.27;4.70;;;;;;;23.54;100.00;101560.97;5027677;28;20051;-79
2023/08/24 10:00:10;;;;;;;7.03;4.53;;;;;;;23.51;100.00;101561.06;5074118;28;20052;-79
2023/08/24 10:02:51;;;;;;;7.47;5.05;;;;;;;23.52;100.00;101553.91;5064611;28;20047;-79
2023/08/24 10:05:22;;;;;;;9.75;5.25;;;;;;;23.48;100.00;101555.84;5052118;28;20083;-78
2023/08/24 10:07:55;;;;;;;7.18;4.38;;;;;;;23.42;100.00;101555.19;5075783;28;20063;-79
2023/08/24 10:10:25;;;;;;;5.65;4.55;;;;;;;23.39;100.00;101550.81;5070195;28;20048;-79
2023/08/24 10:12:59;;;;;;;7.88;5.57;;;;;;;23.39;100.00;101541.88;5038599;28;20044;-78
2023/08/24 10:15:29;;;;;;;10.15;5.35;;;;;;;23.33;100.00;101540.31;5070887;28;20047;-81
2023/08/24 10:17:57;;;;;;;5.88;4.72;;;;;;;23.30;100.00;101529.66;5067452;28;20063;-81
2023/08/24 10:20:26;;;;;;;16.85;6.95;;;;;;;23.27;100.00;101529.75;5057026;28;20052;-80
2023/08/24 10:22:55;;;;;;;7.40;5.20;;;;;;;23.24;100.00;101524.53;5059932;28;20048;-80
2023/08/24 10:25:24;;;;;;;9.57;5.47;;;;;;;23.22;100.00;101521.91;5073059;28;20047;-81
2023/08/24 10:27:54;;;;;;;7.88;5.50;;;;;;;23.21;100.00;101519.25;5036587;28;20060;-81
2023/08/24 10:30:21;;;;;;;9.02;5.03;;;;;;;23.19;100.00;101516.63;5085302;28;20044;-80
2023/08/24 10:32:53;;;;;;;11.57;5.45;;;;;;;23.15;100.00;101507.81;5076497;28;20040;-80
2023/08/24 10:35:23;;;;;;;11.00;6.10;;;;;;;23.12;100.00;101496.31;5042022;28;20047;-80
2023/08/24 10:37:58;;;;;;;9.45;5.85;;;;;;;23.09;100.00;101504.50;5058886;28;20413;-81
2023/08/24 10:40:35;;;;;;;6.97;4.85;;;;;;;23.05;100.00;101489.44;5070557;28;20053;-83
2023/08/24 10:43:05;;;;;;;7.95;5.15;;;;;;;23.00;100.00;101476.13;5021498;28;20048;-83
2023/08/24 10:46:03;;;;;;;10.52;5.15;;;;;;;22.97;100.00;101469.06;5060514;28;20048;-83
2023/08/24 10:48:57;;;;;;;7.55;5.15;;;;;;;22.91;100.00;101453.19;5073660;28;20070;-83
2023/08/24 10:51:26;;;;;;;12.45;5.68;;;;;;;22.84;100.00;101456.16;5077625;28;20043;-84
2023/08/24 10:53:57;;;;;;;8.98;5.15;;;;;;;22.82;100.00;101458.91;5062968;28;20051;-82
2023/08/24 10:56:35;;;;;;;8.82;5.40;;;;;;;22.82;100.00;101456.22;5052701;28;20075;-83
2023/08/24 10:59:13;;;;;;;9.30;5.60;;;;;;;22.81;100.00;101451.75;5057332;28;20048;-83
2023/08/24 11:02:04;;;;;;;14.30;5.97;;;;;;;22.81;100.00;101443.69;5084115;28;20040;-84
2023/08/24 11:04:31;;;;;;;9.13;6.03;;;;;;;22.78;100.00;101451.91;5069039;28;20619;-86
2023/08/24 11:07:02;;;;;;;15.18;7.00;;;;;;;22.73;100.00;101444.00;5089772;28;20063;-80
2023/08/24 11:09:47;;;;;;;10.30;5.80;;;;;;;22.69;100.00;101438.81;5059158;28;20063;-85
2023/08/24 11:12:15;;;;;;;10.68;6.47;;;;;;;22.68;100.00;101432.53;5081675;28;20048;-81
2023/08/24 11:14:58;;;;;;;8.27;5.82;;;;;;;22.65;100.00;101426.44;5035948;28;20429;-81
2023/08/24 11:17:32;;;;;;;8.35;6.63;;;;;;;22.59;100.00;101416.81;5076355;28;20081;-81
2023/08/24 11:20:00;;;;;;;19.55;7.65;;;;;;;22.50;100.00;101415.34;5072784;28;20417;-81
2023/08/24 11:22:34;;;;;;;12.23;7.25;;;;;;;22.45;100.00;101411.06;5068404;28;20779;-78
2023/08/24 11:25:03;;;;;;;13.93;7.03;;;;;;;22.47;100.00;101414.56;5022273;28;20488;-79
2023/08/24 11:27:32;;;;;;;14.85;7.25;;;;;;;22.45;100.00;101401.19;5069117;28;20048;-80